< < Back
Terminal Aerodrome Forecast


Current Version              Previous Versions:   1  2  3  4  5  6  7  8  9  

Terminal Aerodrome Forecast

805
FTUS44 KOHX 281700 AAD
TAFCSV
TAF AMD
KCSV 281703Z 2817/2912 31012G17KT P6SM SCT035 SCT040=

Latest METAR

293
SAUS70 KWBC 290600
MTRCSV
METAR KCSV 290553Z AUTO 27003KT 10SM CLR 17/14 A3006 RMK AO2 SLP160
T01670144 10261 20167 402610167 50001


USA.gov is the U.S. government's official web portal to all federal, state and local government web resources and services.